sensor_id;sensor_type;location;lat;lon;timestamp;P1;durP1;ratioP1;P2;durP2;ratioP2
57337;SDS011;43173;50.980;18.204;2023-12-29T00:01:32;31.60;;;14.60;;
57337;SDS011;43173;50.980;18.204;2023-12-29T00:03:57;28.50;;;14.30;;
57337;SDS011;43173;50.980;18.204;2023-12-29T00:06:23;21.80;;;12.00;;
57337;SDS011;43173;50.980;18.204;2023-12-29T00:08:48;30.10;;;14.30;;
57337;SDS011;43173;50.980;18.204;2023-12-29T00:11:17;31.30;;;13.80;;
57337;SDS011;43173;50.980;18.204;2023-12-29T00:13:44;29.50;;;13.80;;
57337;SDS011;43173;50.980;18.204;2023-12-29T00:16:09;30.60;;;14.50;;
57337;SDS011;43173;50.980;18.204;2023-12-29T00:18:36;31.00;;;13.80;;
57337;SDS011;43173;50.980;18.204;2023-12-29T00:21:02;24.70;;;12.90;;
57337;SDS011;43173;50.980;18.204;2023-12-29T00:23:28;28.50;;;14.00;;
57337;SDS011;43173;50.980;18.204;2023-12-29T00:25:54;32.30;;;14.80;;
57337;SDS011;43173;50.980;18.204;2023-12-29T00:28:19;31.30;;;13.70;;
57337;SDS011;43173;50.980;18.204;2023-12-29T00:30:45;27.00;;;12.60;;
57337;SDS011;43173;50.980;18.204;2023-12-29T00:33:10;28.40;;;14.30;;
57337;SDS011;43173;50.980;18.204;2023-12-29T00:35:39;30.90;;;13.80;;
57337;SDS011;43173;50.980;18.204;2023-12-29T00:38:05;27.80;;;12.00;;
57337;SDS011;43173;50.980;18.204;2023-12-29T00:40:32;28.10;;;13.40;;
57337;SDS011;43173;50.980;18.204;2023-12-29T00:42:59;29.20;;;13.70;;
57337;SDS011;43173;50.980;18.204;2023-12-29T00:45:25;29.90;;;14.20;;
57337;SDS011;43173;50.980;18.204;2023-12-29T00:47:52;26.50;;;12.50;;
57337;SDS011;43173;50.980;18.204;2023-12-29T00:50:18;23.50;;;12.00;;
57337;SDS011;43173;50.980;18.204;2023-12-29T00:52:44;29.70;;;13.30;;
57337;SDS011;43173;50.980;18.204;2023-12-29T00:55:09;29.10;;;12.90;;
57337;SDS011;43173;50.980;18.204;2023-12-29T00:57:35;28.60;;;12.10;;
57337;SDS011;43173;50.980;18.204;2023-12-29T01:00:00;25.30;;;13.00;;
57337;SDS011;43173;50.980;18.204;2023-12-29T01:02:26;28.50;;;13.40;;
57337;SDS011;43173;50.980;18.204;2023-12-29T01:04:51;31.20;;;13.10;;
57337;SDS011;43173;50.980;18.204;2023-12-29T01:07:17;30.20;;;13.90;;
57337;SDS011;43173;50.980;18.204;2023-12-29T01:09:43;27.40;;;13.00;;
57337;SDS011;43173;50.980;18.204;2023-12-29T01:12:08;32.10;;;14.00;;
57337;SDS011;43173;50.980;18.204;2023-12-29T01:14:34;29.60;;;12.30;;
57337;SDS011;43173;50.980;18.204;2023-12-29T01:16:59;25.40;;;12.20;;
57337;SDS011;43173;50.980;18.204;2023-12-29T01:19:25;25.80;;;12.50;;
57337;SDS011;43173;50.980;18.204;2023-12-29T01:21:50;25.70;;;12.00;;
57337;SDS011;43173;50.980;18.204;2023-12-29T01:24:16;28.00;;;11.90;;
57337;SDS011;43173;50.980;18.204;2023-12-29T01:26:41;24.50;;;12.50;;
57337;SDS011;43173;50.980;18.204;2023-12-29T01:29:07;20.90;;;11.50;;
57337;SDS011;43173;50.980;18.204;2023-12-29T01:31:32;23.90;;;12.30;;
57337;SDS011;43173;50.980;18.204;2023-12-29T01:33:58;21.10;;;10.80;;
57337;SDS011;43173;50.980;18.204;2023-12-29T01:36:24;26.20;;;11.70;;
57337;SDS011;43173;50.980;18.204;2023-12-29T01:38:50;23.90;;;10.40;;
57337;SDS011;43173;50.980;18.204;2023-12-29T01:41:15;19.60;;;9.40;;
57337;SDS011;43173;50.980;18.204;2023-12-29T01:46:25;22.90;;;10.40;;
57337;SDS011;43173;50.980;18.204;2023-12-29T01:48:53;21.20;;;8.60;;
57337;SDS011;43173;50.980;18.204;2023-12-29T01:51:18;19.30;;;9.40;;
57337;SDS011;43173;50.980;18.204;2023-12-29T01:53:46;21.20;;;10.20;;
57337;SDS011;43173;50.980;18.204;2023-12-29T01:56:13;19.50;;;10.90;;
57337;SDS011;43173;50.980;18.204;2023-12-29T01:58:39;20.70;;;9.50;;
57337;SDS011;43173;50.980;18.204;2023-12-29T02:01:05;17.00;;;9.30;;
57337;SDS011;43173;50.980;18.204;2023-12-29T02:03:33;21.40;;;10.00;;
57337;SDS011;43173;50.980;18.204;2023-12-29T02:05:59;21.90;;;9.90;;
57337;SDS011;43173;50.980;18.204;2023-12-29T02:08:24;20.20;;;10.20;;
57337;SDS011;43173;50.980;18.204;2023-12-29T02:10:50;22.10;;;10.90;;
57337;SDS011;43173;50.980;18.204;2023-12-29T02:13:16;18.40;;;10.00;;
57337;SDS011;43173;50.980;18.204;2023-12-29T02:15:41;19.60;;;9.30;;
57337;SDS011;43173;50.980;18.204;2023-12-29T02:18:09;20.10;;;10.10;;
57337;SDS011;43173;50.980;18.204;2023-12-29T02:20:40;23.00;;;10.90;;
57337;SDS011;43173;50.980;18.204;2023-12-29T02:23:06;18.90;;;9.90;;
57337;SDS011;43173;50.980;18.204;2023-12-29T02:25:32;30.40;;;12.40;;
57337;SDS011;43173;50.980;18.204;2023-12-29T02:28:06;24.20;;;11.40;;
57337;SDS011;43173;50.980;18.204;2023-12-29T02:33:19;19.20;;;9.40;;
57337;SDS011;43173;50.980;18.204;2023-12-29T02:35:46;19.20;;;10.10;;
57337;SDS011;43173;50.980;18.204;2023-12-29T02:38:17;15.60;;;9.40;;
57337;SDS011;43173;50.980;18.204;2023-12-29T02:40:42;16.00;;;7.90;;
57337;SDS011;43173;50.980;18.204;2023-12-29T02:43:08;9.80;;;6.40;;
57337;SDS011;43173;50.980;18.204;2023-12-29T02:45:34;17.80;;;8.30;;
57337;SDS011;43173;50.980;18.204;2023-12-29T02:48:00;15.20;;;7.80;;
57337;SDS011;43173;50.980;18.204;2023-12-29T02:50:25;13.70;;;7.50;;
57337;SDS011;43173;50.980;18.204;2023-12-29T02:52:51;11.80;;;7.20;;
57337;SDS011;43173;50.980;18.204;2023-12-29T02:55:16;12.80;;;7.20;;
57337;SDS011;43173;50.980;18.204;2023-12-29T02:57:42;13.70;;;6.90;;
57337;SDS011;43173;50.980;18.204;2023-12-29T03:00:07;14.40;;;7.50;;
57337;SDS011;43173;50.980;18.204;2023-12-29T03:02:33;16.50;;;8.10;;
57337;SDS011;43173;50.980;18.204;2023-12-29T03:04:59;15.50;;;8.10;;
57337;SDS011;43173;50.980;18.204;2023-12-29T03:07:25;13.30;;;7.70;;
57337;SDS011;43173;50.980;18.204;2023-12-29T03:09:51;19.70;;;9.00;;
57337;SDS011;43173;50.980;18.204;2023-12-29T03:12:16;20.20;;;9.60;;
57337;SDS011;43173;50.980;18.204;2023-12-29T03:14:42;20.70;;;9.90;;
57337;SDS011;43173;50.980;18.204;2023-12-29T03:17:09;19.90;;;10.60;;
57337;SDS011;43173;50.980;18.204;2023-12-29T03:19:35;17.30;;;8.60;;
57337;SDS011;43173;50.980;18.204;2023-12-29T03:22:01;16.30;;;8.60;;
57337;SDS011;43173;50.980;18.204;2023-12-29T03:24:28;17.80;;;8.00;;
57337;SDS011;43173;50.980;18.204;2023-12-29T03:26:54;12.40;;;6.90;;
57337;SDS011;43173;50.980;18.204;2023-12-29T03:29:20;19.90;;;9.10;;
57337;SDS011;43173;50.980;18.204;2023-12-29T03:31:45;17.60;;;8.30;;
57337;SDS011;43173;50.980;18.204;2023-12-29T03:34:11;16.50;;;8.30;;
57337;SDS011;43173;50.980;18.204;2023-12-29T03:36:37;12.90;;;7.60;;
57337;SDS011;43173;50.980;18.204;2023-12-29T03:39:02;14.40;;;8.00;;
57337;SDS011;43173;50.980;18.204;2023-12-29T03:41:28;14.80;;;7.20;;
57337;SDS011;43173;50.980;18.204;2023-12-29T03:43:54;15.70;;;7.60;;
57337;SDS011;43173;50.980;18.204;2023-12-29T03:46:21;15.60;;;8.20;;
57337;SDS011;43173;50.980;18.204;2023-12-29T03:48:47;15.10;;;7.80;;
57337;SDS011;43173;50.980;18.204;2023-12-29T03:51:13;17.20;;;7.70;;
57337;SDS011;43173;50.980;18.204;2023-12-29T03:53:39;17.40;;;8.30;;
57337;SDS011;43173;50.980;18.204;2023-12-29T03:56:06;17.10;;;8.90;;
57337;SDS011;43173;50.980;18.204;2023-12-29T03:58:33;18.10;;;8.70;;
57337;SDS011;43173;50.980;18.204;2023-12-29T04:00:59;14.60;;;7.90;;
57337;SDS011;43173;50.980;18.204;2023-12-29T04:03:24;14.10;;;7.90;;
57337;SDS011;43173;50.980;18.204;2023-12-29T04:05:50;14.80;;;8.50;;
57337;SDS011;43173;50.980;18.204;2023-12-29T04:08:15;16.20;;;8.50;;
57337;SDS011;43173;50.980;18.204;2023-12-29T04:10:41;12.60;;;7.30;;
57337;SDS011;43173;50.980;18.204;2023-12-29T04:13:06;16.30;;;8.00;;
57337;SDS011;43173;50.980;18.204;2023-12-29T04:15:31;13.00;;;7.10;;
57337;SDS011;43173;50.980;18.204;2023-12-29T04:17:57;15.20;;;7.60;;
57337;SDS011;43173;50.980;18.204;2023-12-29T04:20:23;14.40;;;7.10;;
57337;SDS011;43173;50.980;18.204;2023-12-29T04:22:49;14.70;;;7.40;;
57337;SDS011;43173;50.980;18.204;2023-12-29T04:25:15;13.60;;;6.60;;
57337;SDS011;43173;50.980;18.204;2023-12-29T04:27:40;14.80;;;8.00;;
57337;SDS011;43173;50.980;18.204;2023-12-29T04:30:06;14.20;;;7.40;;
57337;SDS011;43173;50.980;18.204;2023-12-29T04:32:32;14.70;;;7.60;;
57337;SDS011;43173;50.980;18.204;2023-12-29T04:34:58;18.20;;;8.00;;
57337;SDS011;43173;50.980;18.204;2023-12-29T04:37:24;16.30;;;7.70;;
57337;SDS011;43173;50.980;18.204;2023-12-29T04:39:49;15.20;;;7.70;;
57337;SDS011;43173;50.980;18.204;2023-12-29T04:42:15;13.20;;;7.70;;
57337;SDS011;43173;50.980;18.204;2023-12-29T04:44:42;17.00;;;9.10;;
57337;SDS011;43173;50.980;18.204;2023-12-29T04:47:07;19.00;;;9.10;;
57337;SDS011;43173;50.980;18.204;2023-12-29T04:49:33;16.30;;;8.80;;
57337;SDS011;43173;50.980;18.204;2023-12-29T04:51:58;23.50;;;8.70;;
57337;SDS011;43173;50.980;18.204;2023-12-29T04:54:24;17.60;;;9.10;;
57337;SDS011;43173;50.980;18.204;2023-12-29T04:56:50;15.60;;;7.60;;
57337;SDS011;43173;50.980;18.204;2023-12-29T04:59:16;14.50;;;7.90;;
57337;SDS011;43173;50.980;18.204;2023-12-29T05:01:41;13.90;;;7.90;;
57337;SDS011;43173;50.980;18.204;2023-12-29T05:04:07;13.90;;;7.80;;
57337;SDS011;43173;50.980;18.204;2023-12-29T05:06:32;14.40;;;7.80;;
57337;SDS011;43173;50.980;18.204;2023-12-29T05:08:58;16.50;;;9.50;;
57337;SDS011;43173;50.980;18.204;2023-12-29T05:11:24;16.60;;;9.30;;
57337;SDS011;43173;50.980;18.204;2023-12-29T05:13:49;13.90;;;8.20;;
57337;SDS011;43173;50.980;18.204;2023-12-29T05:16:15;16.80;;;8.80;;
57337;SDS011;43173;50.980;18.204;2023-12-29T05:18:41;14.00;;;7.90;;
57337;SDS011;43173;50.980;18.204;2023-12-29T05:21:13;11.20;;;7.20;;
57337;SDS011;43173;50.980;18.204;2023-12-29T05:23:45;13.10;;;7.60;;
57337;SDS011;43173;50.980;18.204;2023-12-29T05:26:11;13.60;;;7.00;;
57337;SDS011;43173;50.980;18.204;2023-12-29T05:28:37;14.80;;;7.40;;
57337;SDS011;43173;50.980;18.204;2023-12-29T05:31:03;11.20;;;6.90;;
57337;SDS011;43173;50.980;18.204;2023-12-29T05:33:30;13.70;;;8.30;;
57337;SDS011;43173;50.980;18.204;2023-12-29T05:35:55;17.00;;;9.20;;
57337;SDS011;43173;50.980;18.204;2023-12-29T05:38:21;16.90;;;9.30;;
57337;SDS011;43173;50.980;18.204;2023-12-29T05:40:47;11.60;;;7.90;;
57337;SDS011;43173;50.980;18.204;2023-12-29T05:43:12;13.40;;;7.70;;
57337;SDS011;43173;50.980;18.204;2023-12-29T05:45:38;16.20;;;10.00;;
57337;SDS011;43173;50.980;18.204;2023-12-29T05:48:03;12.80;;;8.10;;
57337;SDS011;43173;50.980;18.204;2023-12-29T05:50:29;16.90;;;9.70;;
57337;SDS011;43173;50.980;18.204;2023-12-29T05:52:55;20.40;;;11.30;;
57337;SDS011;43173;50.980;18.204;2023-12-29T05:55:20;20.70;;;11.20;;
57337;SDS011;43173;50.980;18.204;2023-12-29T05:57:46;19.40;;;10.80;;
57337;SDS011;43173;50.980;18.204;2023-12-29T06:00:11;17.40;;;9.90;;
57337;SDS011;43173;50.980;18.204;2023-12-29T06:02:42;18.80;;;10.70;;
57337;SDS011;43173;50.980;18.204;2023-12-29T06:05:11;24.20;;;13.30;;
57337;SDS011;43173;50.980;18.204;2023-12-29T06:07:37;29.10;;;18.70;;
57337;SDS011;43173;50.980;18.204;2023-12-29T06:10:04;30.90;;;18.70;;
57337;SDS011;43173;50.980;18.204;2023-12-29T06:12:29;27.40;;;18.20;;
57337;SDS011;43173;50.980;18.204;2023-12-29T06:14:55;23.00;;;13.10;;
57337;SDS011;43173;50.980;18.204;2023-12-29T06:17:20;19.30;;;12.20;;
57337;SDS011;43173;50.980;18.204;2023-12-29T06:19:46;18.20;;;11.20;;
57337;SDS011;43173;50.980;18.204;2023-12-29T06:22:12;18.50;;;11.70;;
57337;SDS011;43173;50.980;18.204;2023-12-29T06:24:42;17.60;;;10.70;;
57337;SDS011;43173;50.980;18.204;2023-12-29T06:27:08;19.10;;;9.80;;
57337;SDS011;43173;50.980;18.204;2023-12-29T06:29:34;76.20;;;21.20;;
57337;SDS011;43173;50.980;18.204;2023-12-29T06:32:00;272.10;;;57.10;;
57337;SDS011;43173;50.980;18.204;2023-12-29T06:34:27;207.10;;;46.70;;
57337;SDS011;43173;50.980;18.204;2023-12-29T06:36:53;175.40;;;44.10;;
57337;SDS011;43173;50.980;18.204;2023-12-29T06:39:18;125.50;;;37.40;;
57337;SDS011;43173;50.980;18.204;2023-12-29T06:41:43;102.40;;;32.70;;
57337;SDS011;43173;50.980;18.204;2023-12-29T06:44:09;65.90;;;25.40;;
57337;SDS011;43173;50.980;18.204;2023-12-29T06:46:39;48.00;;;20.50;;
57337;SDS011;43173;50.980;18.204;2023-12-29T06:49:08;34.90;;;17.80;;
57337;SDS011;43173;50.980;18.204;2023-12-29T06:51:34;28.20;;;14.00;;
57337;SDS011;43173;50.980;18.204;2023-12-29T06:54:01;22.80;;;13.40;;
57337;SDS011;43173;50.980;18.204;2023-12-29T06:56:27;21.80;;;12.30;;
57337;SDS011;43173;50.980;18.204;2023-12-29T06:58:52;21.80;;;12.70;;
57337;SDS011;43173;50.980;18.204;2023-12-29T07:01:18;33.50;;;15.30;;
57337;SDS011;43173;50.980;18.204;2023-12-29T07:03:44;27.10;;;12.70;;
57337;SDS011;43173;50.980;18.204;2023-12-29T07:06:10;16.40;;;9.20;;
57337;SDS011;43173;50.980;18.204;2023-12-29T07:08:36;15.10;;;9.00;;
57337;SDS011;43173;50.980;18.204;2023-12-29T07:11:01;19.70;;;10.40;;
57337;SDS011;43173;50.980;18.204;2023-12-29T07:13:28;14.20;;;8.80;;
57337;SDS011;43173;50.980;18.204;2023-12-29T07:15:54;18.70;;;10.20;;
57337;SDS011;43173;50.980;18.204;2023-12-29T07:18:20;18.60;;;10.00;;
57337;SDS011;43173;50.980;18.204;2023-12-29T07:20:45;20.90;;;11.10;;
57337;SDS011;43173;50.980;18.204;2023-12-29T07:23:11;19.30;;;10.80;;
57337;SDS011;43173;50.980;18.204;2023-12-29T07:25:36;21.10;;;10.60;;
57337;SDS011;43173;50.980;18.204;2023-12-29T07:28:02;22.50;;;12.40;;
57337;SDS011;43173;50.980;18.204;2023-12-29T07:30:27;17.80;;;10.20;;
57337;SDS011;43173;50.980;18.204;2023-12-29T07:32:53;20.90;;;10.60;;
57337;SDS011;43173;50.980;18.204;2023-12-29T07:46:56;28.20;;;12.80;;
57337;SDS011;43173;50.980;18.204;2023-12-29T07:49:22;26.50;;;13.10;;
57337;SDS011;43173;50.980;18.204;2023-12-29T07:51:48;29.30;;;13.90;;
57337;SDS011;43173;50.980;18.204;2023-12-29T07:54:14;33.00;;;15.50;;
57337;SDS011;43173;50.980;18.204;2023-12-29T07:56:39;28.50;;;14.00;;
57337;SDS011;43173;50.980;18.204;2023-12-29T07:59:05;21.90;;;11.80;;
57337;SDS011;43173;50.980;18.204;2023-12-29T08:01:31;18.80;;;11.10;;
57337;SDS011;43173;50.980;18.204;2023-12-29T08:03:57;17.90;;;10.10;;
57337;SDS011;43173;50.980;18.204;2023-12-29T08:06:22;15.60;;;8.20;;
57337;SDS011;43173;50.980;18.204;2023-12-29T08:08:48;15.90;;;9.40;;
57337;SDS011;43173;50.980;18.204;2023-12-29T08:11:14;14.00;;;8.90;;
57337;SDS011;43173;50.980;18.204;2023-12-29T08:13:41;15.70;;;9.40;;
57337;SDS011;43173;50.980;18.204;2023-12-29T08:16:08;17.50;;;9.50;;
57337;SDS011;43173;50.980;18.204;2023-12-29T08:18:34;14.50;;;9.10;;
57337;SDS011;43173;50.980;18.204;2023-12-29T08:20:59;18.70;;;10.00;;
57337;SDS011;43173;50.980;18.204;2023-12-29T08:23:25;18.70;;;10.50;;
57337;SDS011;43173;50.980;18.204;2023-12-29T08:25:53;18.30;;;9.30;;
57337;SDS011;43173;50.980;18.204;2023-12-29T08:28:21;16.90;;;9.20;;
57337;SDS011;43173;50.980;18.204;2023-12-29T08:30:46;22.70;;;11.70;;
57337;SDS011;43173;50.980;18.204;2023-12-29T08:33:12;31.60;;;14.00;;
57337;SDS011;43173;50.980;18.204;2023-12-29T08:35:41;25.50;;;11.40;;
57337;SDS011;43173;50.980;18.204;2023-12-29T08:38:08;24.90;;;11.20;;
57337;SDS011;43173;50.980;18.204;2023-12-29T08:40:33;20.60;;;10.30;;
57337;SDS011;43173;50.980;18.204;2023-12-29T08:42:59;20.20;;;9.60;;
57337;SDS011;43173;50.980;18.204;2023-12-29T08:45:26;15.70;;;8.20;;
57337;SDS011;43173;50.980;18.204;2023-12-29T08:47:52;17.00;;;8.20;;
57337;SDS011;43173;50.980;18.204;2023-12-29T08:50:17;15.20;;;7.20;;
57337;SDS011;43173;50.980;18.204;2023-12-29T08:52:43;11.60;;;5.90;;
57337;SDS011;43173;50.980;18.204;2023-12-29T08:55:08;19.80;;;7.80;;
57337;SDS011;43173;50.980;18.204;2023-12-29T08:57:35;17.70;;;8.20;;
57337;SDS011;43173;50.980;18.204;2023-12-29T09:00:00;12.80;;;5.50;;
57337;SDS011;43173;50.980;18.204;2023-12-29T09:02:26;12.70;;;7.20;;
57337;SDS011;43173;50.980;18.204;2023-12-29T09:04:51;12.00;;;6.30;;
57337;SDS011;43173;50.980;18.204;2023-12-29T09:07:17;15.90;;;7.60;;
57337;SDS011;43173;50.980;18.204;2023-12-29T09:09:43;16.10;;;7.80;;
57337;SDS011;43173;50.980;18.204;2023-12-29T09:12:09;13.50;;;7.20;;
57337;SDS011;43173;50.980;18.204;2023-12-29T09:14:35;16.10;;;7.60;;
57337;SDS011;43173;50.980;18.204;2023-12-29T09:17:00;10.60;;;5.20;;
57337;SDS011;43173;50.980;18.204;2023-12-29T09:19:26;12.60;;;7.10;;
57337;SDS011;43173;50.980;18.204;2023-12-29T09:21:52;11.30;;;5.70;;
57337;SDS011;43173;50.980;18.204;2023-12-29T09:24:18;9.60;;;5.50;;
57337;SDS011;43173;50.980;18.204;2023-12-29T09:26:43;10.10;;;5.90;;
57337;SDS011;43173;50.980;18.204;2023-12-29T09:29:09;12.90;;;6.20;;
57337;SDS011;43173;50.980;18.204;2023-12-29T09:31:35;10.30;;;6.20;;
57337;SDS011;43173;50.980;18.204;2023-12-29T09:34:01;8.40;;;4.90;;
57337;SDS011;43173;50.980;18.204;2023-12-29T09:36:27;9.70;;;5.60;;
57337;SDS011;43173;50.980;18.204;2023-12-29T09:38:53;8.30;;;4.60;;
57337;SDS011;43173;50.980;18.204;2023-12-29T09:41:19;8.80;;;4.30;;
57337;SDS011;43173;50.980;18.204;2023-12-29T09:43:47;8.70;;;4.90;;
57337;SDS011;43173;50.980;18.204;2023-12-29T09:46:14;8.00;;;4.50;;
57337;SDS011;43173;50.980;18.204;2023-12-29T09:48:42;9.30;;;4.90;;
57337;SDS011;43173;50.980;18.204;2023-12-29T09:51:11;7.80;;;4.50;;
57337;SDS011;43173;50.980;18.204;2023-12-29T09:53:37;8.50;;;5.20;;
57337;SDS011;43173;50.980;18.204;2023-12-29T09:56:03;8.00;;;4.40;;
57337;SDS011;43173;50.980;18.204;2023-12-29T09:58:32;8.80;;;5.00;;
57337;SDS011;43173;50.980;18.204;2023-12-29T10:00:59;8.20;;;5.20;;
57337;SDS011;43173;50.980;18.204;2023-12-29T10:03:27;5.90;;;4.30;;
57337;SDS011;43173;50.980;18.204;2023-12-29T10:05:54;7.20;;;3.80;;
57337;SDS011;43173;50.980;18.204;2023-12-29T10:08:22;6.50;;;3.70;;
57337;SDS011;43173;50.980;18.204;2023-12-29T10:10:48;8.20;;;4.40;;
57337;SDS011;43173;50.980;18.204;2023-12-29T10:13:15;7.30;;;4.00;;
57337;SDS011;43173;50.980;18.204;2023-12-29T10:20:56;8.60;;;4.60;;
57337;SDS011;43173;50.980;18.204;2023-12-29T10:23:36;8.40;;;4.60;;
57337;SDS011;43173;50.980;18.204;2023-12-29T10:26:05;8.40;;;4.40;;
57337;SDS011;43173;50.980;18.204;2023-12-29T10:28:32;10.50;;;5.60;;
57337;SDS011;43173;50.980;18.204;2023-12-29T10:30:58;7.30;;;4.00;;
57337;SDS011;43173;50.980;18.204;2023-12-29T10:33:24;6.10;;;4.00;;
57337;SDS011;43173;50.980;18.204;2023-12-29T10:38:32;8.70;;;3.60;;
57337;SDS011;43173;50.980;18.204;2023-12-29T10:43:44;12.90;;;4.20;;
57337;SDS011;43173;50.980;18.204;2023-12-29T10:46:17;7.70;;;3.40;;
57337;SDS011;43173;50.980;18.204;2023-12-29T10:48:43;7.60;;;3.20;;
57337;SDS011;43173;50.980;18.204;2023-12-29T10:51:08;7.20;;;3.40;;
57337;SDS011;43173;50.980;18.204;2023-12-29T10:53:35;7.30;;;4.20;;
57337;SDS011;43173;50.980;18.204;2023-12-29T10:56:01;8.50;;;4.20;;
57337;SDS011;43173;50.980;18.204;2023-12-29T10:58:27;7.30;;;3.80;;
57337;SDS011;43173;50.980;18.204;2023-12-29T11:00:57;6.70;;;3.40;;
57337;SDS011;43173;50.980;18.204;2023-12-29T11:03:23;7.20;;;3.60;;
57337;SDS011;43173;50.980;18.204;2023-12-29T11:05:50;8.10;;;4.00;;
57337;SDS011;43173;50.980;18.204;2023-12-29T11:08:20;8.40;;;3.70;;
57337;SDS011;43173;50.980;18.204;2023-12-29T11:10:49;7.40;;;3.20;;
57337;SDS011;43173;50.980;18.204;2023-12-29T11:13:15;5.80;;;2.90;;
57337;SDS011;43173;50.980;18.204;2023-12-29T11:15:45;3.50;;;2.20;;
57337;SDS011;43173;50.980;18.204;2023-12-29T11:18:12;5.20;;;2.60;;
57337;SDS011;43173;50.980;18.204;2023-12-29T11:20:42;5.00;;;2.40;;
57337;SDS011;43173;50.980;18.204;2023-12-29T11:23:09;6.50;;;2.50;;
57337;SDS011;43173;50.980;18.204;2023-12-29T11:25:38;4.60;;;2.70;;
57337;SDS011;43173;50.980;18.204;2023-12-29T11:28:04;7.30;;;3.80;;
57337;SDS011;43173;50.980;18.204;2023-12-29T11:30:32;7.00;;;3.70;;
57337;SDS011;43173;50.980;18.204;2023-12-29T11:33:06;3.20;;;1.60;;
57337;SDS011;43173;50.980;18.204;2023-12-29T11:35:43;5.10;;;2.30;;
57337;SDS011;43173;50.980;18.204;2023-12-29T11:41:31;3.40;;;2.10;;
57337;SDS011;43173;50.980;18.204;2023-12-29T11:43:58;4.30;;;3.00;;
57337;SDS011;43173;50.980;18.204;2023-12-29T11:49:10;8.60;;;4.60;;
57337;SDS011;43173;50.980;18.204;2023-12-29T11:54:05;4.20;;;3.00;;
57337;SDS011;43173;50.980;18.204;2023-12-29T11:56:35;3.60;;;2.20;;
57337;SDS011;43173;50.980;18.204;2023-12-29T12:01:46;4.60;;;2.40;;
57337;SDS011;43173;50.980;18.204;2023-12-29T12:07:17;3.70;;;2.20;;
57337;SDS011;43173;50.980;18.204;2023-12-29T12:21:55;4.80;;;2.50;;
57337;SDS011;43173;50.980;18.204;2023-12-29T12:24:21;4.20;;;2.70;;
57337;SDS011;43173;50.980;18.204;2023-12-29T12:26:47;3.30;;;1.80;;
57337;SDS011;43173;50.980;18.204;2023-12-29T12:29:14;5.90;;;3.10;;
57337;SDS011;43173;50.980;18.204;2023-12-29T12:32:15;5.80;;;3.20;;
57337;SDS011;43173;50.980;18.204;2023-12-29T12:34:39;2.30;;;1.30;;
57337;SDS011;43173;50.980;18.204;2023-12-29T12:37:04;8.00;;;4.70;;
57337;SDS011;43173;50.980;18.204;2023-12-29T12:42:11;3.50;;;2.10;;
57337;SDS011;43173;50.980;18.204;2023-12-29T12:44:41;2.90;;;2.40;;
57337;SDS011;43173;50.980;18.204;2023-12-29T12:47:08;3.10;;;2.10;;
57337;SDS011;43173;50.980;18.204;2023-12-29T12:49:36;6.50;;;3.10;;
57337;SDS011;43173;50.980;18.204;2023-12-29T12:52:01;1.60;;;1.50;;
57337;SDS011;43173;50.980;18.204;2023-12-29T12:54:28;2.60;;;1.60;;
57337;SDS011;43173;50.980;18.204;2023-12-29T12:56:54;2.50;;;1.90;;
57337;SDS011;43173;50.980;18.204;2023-12-29T12:59:20;3.40;;;1.90;;
57337;SDS011;43173;50.980;18.204;2023-12-29T13:01:45;3.30;;;2.20;;
57337;SDS011;43173;50.980;18.204;2023-12-29T13:04:11;2.40;;;1.60;;
57337;SDS011;43173;50.980;18.204;2023-12-29T13:06:39;6.30;;;3.30;;
57337;SDS011;43173;50.980;18.204;2023-12-29T13:09:09;3.10;;;1.80;;
57337;SDS011;43173;50.980;18.204;2023-12-29T13:11:41;4.20;;;1.80;;
57337;SDS011;43173;50.980;18.204;2023-12-29T13:14:06;2.50;;;1.70;;
57337;SDS011;43173;50.980;18.204;2023-12-29T13:16:33;5.90;;;3.20;;
57337;SDS011;43173;50.980;18.204;2023-12-29T13:21:55;7.70;;;4.60;;
57337;SDS011;43173;50.980;18.204;2023-12-29T13:24:21;6.90;;;4.50;;
57337;SDS011;43173;50.980;18.204;2023-12-29T13:26:50;7.90;;;4.20;;
57337;SDS011;43173;50.980;18.204;2023-12-29T13:29:20;5.30;;;3.80;;
57337;SDS011;43173;50.980;18.204;2023-12-29T13:31:50;5.90;;;4.10;;
57337;SDS011;43173;50.980;18.204;2023-12-29T13:34:21;3.70;;;2.10;;
57337;SDS011;43173;50.980;18.204;2023-12-29T13:36:54;3.50;;;1.90;;
57337;SDS011;43173;50.980;18.204;2023-12-29T13:39:35;5.40;;;2.70;;
57337;SDS011;43173;50.980;18.204;2023-12-29T13:42:03;5.80;;;2.60;;
57337;SDS011;43173;50.980;18.204;2023-12-29T13:44:30;3.90;;;2.10;;
57337;SDS011;43173;50.980;18.204;2023-12-29T13:46:56;5.40;;;2.30;;
57337;SDS011;43173;50.980;18.204;2023-12-29T13:49:22;2.80;;;2.00;;
57337;SDS011;43173;50.980;18.204;2023-12-29T13:51:48;5.70;;;2.40;;
57337;SDS011;43173;50.980;18.204;2023-12-29T13:54:13;5.90;;;2.90;;
57337;SDS011;43173;50.980;18.204;2023-12-29T13:56:39;4.00;;;2.60;;
57337;SDS011;43173;50.980;18.204;2023-12-29T13:59:16;4.90;;;2.90;;
57337;SDS011;43173;50.980;18.204;2023-12-29T14:01:41;2.70;;;1.90;;
57337;SDS011;43173;50.980;18.204;2023-12-29T14:04:07;4.20;;;3.10;;
57337;SDS011;43173;50.980;18.204;2023-12-29T14:09:24;2.40;;;1.20;;
57337;SDS011;43173;50.980;18.204;2023-12-29T14:11:50;4.10;;;2.40;;
57337;SDS011;43173;50.980;18.204;2023-12-29T14:14:23;5.00;;;2.40;;
57337;SDS011;43173;50.980;18.204;2023-12-29T14:16:53;5.00;;;2.90;;
57337;SDS011;43173;50.980;18.204;2023-12-29T14:19:19;3.60;;;2.70;;
57337;SDS011;43173;50.980;18.204;2023-12-29T14:21:54;2.80;;;1.90;;
57337;SDS011;43173;50.980;18.204;2023-12-29T14:24:21;3.60;;;2.30;;
57337;SDS011;43173;50.980;18.204;2023-12-29T14:26:53;3.40;;;1.90;;
57337;SDS011;43173;50.980;18.204;2023-12-29T14:29:24;3.60;;;2.00;;
57337;SDS011;43173;50.980;18.204;2023-12-29T14:31:50;2.60;;;2.00;;
57337;SDS011;43173;50.980;18.204;2023-12-29T14:34:17;3.90;;;2.20;;
57337;SDS011;43173;50.980;18.204;2023-12-29T14:36:44;4.50;;;2.50;;
57337;SDS011;43173;50.980;18.204;2023-12-29T14:39:10;5.00;;;2.80;;
57337;SDS011;43173;50.980;18.204;2023-12-29T14:41:36;5.50;;;2.70;;
57337;SDS011;43173;50.980;18.204;2023-12-29T14:44:02;2.80;;;2.00;;
57337;SDS011;43173;50.980;18.204;2023-12-29T14:46:27;2.80;;;1.80;;
57337;SDS011;43173;50.980;18.204;2023-12-29T14:48:54;2.50;;;1.70;;
57337;SDS011;43173;50.980;18.204;2023-12-29T14:51:22;4.20;;;2.10;;
57337;SDS011;43173;50.980;18.204;2023-12-29T14:53:49;5.10;;;1.90;;
57337;SDS011;43173;50.980;18.204;2023-12-29T14:56:15;3.80;;;2.70;;
57337;SDS011;43173;50.980;18.204;2023-12-29T14:58:41;4.10;;;2.50;;
57337;SDS011;43173;50.980;18.204;2023-12-29T15:01:07;4.10;;;2.10;;
57337;SDS011;43173;50.980;18.204;2023-12-29T15:03:34;3.20;;;1.70;;
57337;SDS011;43173;50.980;18.204;2023-12-29T15:06:00;2.80;;;1.80;;
57337;SDS011;43173;50.980;18.204;2023-12-29T15:08:26;3.90;;;2.40;;
57337;SDS011;43173;50.980;18.204;2023-12-29T15:10:56;6.60;;;2.40;;
57337;SDS011;43173;50.980;18.204;2023-12-29T15:13:23;7.30;;;2.70;;
57337;SDS011;43173;50.980;18.204;2023-12-29T15:15:50;6.00;;;2.80;;
57337;SDS011;43173;50.980;18.204;2023-12-29T15:18:17;7.60;;;2.80;;
57337;SDS011;43173;50.980;18.204;2023-12-29T15:20:42;9.40;;;3.70;;